Time;durP1;ratioP1;P1;durP2;ratioP2;P2;SDS_P1;SDS_P2;PMS_P1;PMS_P2;Temp;Humidity;BMP_temperature;BMP_pressure;BME280_temperature;BME280_humidity;BME280_pressure;Samples;Min_cycle;Max_cycle;Signal;HPM_P1;HPM_P2
2021/12/13 00:00:31;;;;;;;1.70;1.60;;;16.10;29.20;;;;;;5078610;28;20250;-74
2021/12/13 00:03:08;;;;;;;2.58;1.30;;;16.10;29.20;;;;;;5078480;28;20214;-73
2021/12/13 00:05:39;;;;;;;1.50;1.30;;;16.10;29.20;;;;;;5078521;28;20207;-73
2021/12/13 00:08:10;;;;;;;1.98;1.30;;;16.10;29.30;;;;;;5078559;28;20204;-74
2021/12/13 00:10:41;;;;;;;2.58;1.27;;;16.10;29.20;;;;;;5078228;28;20215;-75
2021/12/13 00:13:13;;;;;;;2.40;1.42;;;16.20;29.30;;;;;;5078656;28;20204;-75
2021/12/13 00:15:49;;;;;;;4.22;1.40;;;16.20;29.30;;;;;;5079053;28;20236;-73
2021/12/13 00:18:24;;;;;;;1.55;1.08;;;16.20;29.30;;;;;;5078537;28;20610;-74
2021/12/13 00:21:04;;;;;;;2.42;1.20;;;16.20;29.30;;;;;;5078318;28;20211;-75
2021/12/13 00:23:34;;;;;;;3.78;1.30;;;16.20;29.20;;;;;;5068900;28;20201;-74
2021/12/13 00:26:03;;;;;;;1.48;1.10;;;16.20;29.20;;;;;;5078516;28;20215;-74
2021/12/13 00:28:34;;;;;;;1.20;1.10;;;16.20;29.20;;;;;;5078376;28;20208;-73
2021/12/13 00:31:15;;;;;;;1.73;1.23;;;16.20;29.20;;;;;;5077459;28;20211;-73
2021/12/13 00:33:56;;;;;;;1.77;1.15;;;16.20;29.10;;;;;;5078282;28;20366;-74
2021/12/13 00:36:29;;;;;;;1.90;1.10;;;16.30;29.20;;;;;;5077755;28;20215;-74
2021/12/13 00:39:03;;;;;;;1.17;0.98;;;16.30;29.10;;;;;;5077964;28;20227;-72
2021/12/13 00:41:31;;;;;;;1.10;1.00;;;16.30;29.10;;;;;;5077936;28;20236;-74
2021/12/13 00:44:04;;;;;;;1.52;0.88;;;16.30;29.00;;;;;;5077599;28;20196;-73
2021/12/13 00:46:34;;;;;;;1.83;1.00;;;16.30;29.00;;;;;;5078352;28;20205;-73
2021/12/13 00:49:06;;;;;;;1.80;0.90;;;16.30;29.00;;;;;;5077723;28;20196;-74
2021/12/13 00:51:36;;;;;;;1.20;0.73;;;16.30;29.00;;;;;;5077628;28;20204;-74
2021/12/13 00:54:12;;;;;;;0.85;0.82;;;16.30;29.00;;;;;;5077894;28;20526;-73
2021/12/13 00:56:47;;;;;;;0.98;0.80;;;16.30;29.00;;;;;;5077780;28;20203;-73
2021/12/13 00:59:20;;;;;;;0.60;0.60;;;16.30;28.90;;;;;;5077818;28;20212;-73
2021/12/13 01:01:55;;;;;;;1.98;0.77;;;16.30;28.90;;;;;;5077790;28;20196;-72
2021/12/13 01:04:23;;;;;;;0.90;0.80;;;16.30;28.90;;;;;;5076826;28;20196;-72
2021/12/13 01:07:33;;;;;;;1.48;0.70;;;16.30;28.90;;;;;;5077511;28;20204;-74
2021/12/13 01:10:44;;;;;;;0.68;0.68;;;16.30;28.90;;;;;;5062414;28;20861;-75
2021/12/13 01:13:18;;;;;;;1.30;0.90;;;16.30;28.90;;;;;;5076861;28;20265;-75
2021/12/13 01:15:51;;;;;;;0.77;0.77;;;16.30;28.80;;;;;;5078270;28;20503;-75
2021/12/13 01:18:29;;;;;;;2.55;0.65;;;16.30;28.80;;;;;;5077505;28;20476;-74
2021/12/13 01:21:08;;;;;;;1.00;0.60;;;16.30;28.80;;;;;;5069443;28;20200;-75
2021/12/13 01:23:44;;;;;;;1.50;0.60;;;16.30;28.80;;;;;;5077199;28;20220;-76
2021/12/13 01:26:29;;;;;;;2.33;0.60;;;16.40;29.00;;;;;;5077022;28;20491;-74
2021/12/13 01:29:01;;;;;;;0.80;0.60;;;16.40;29.00;;;;;;5077167;28;20200;-74
2021/12/13 01:31:32;;;;;;;1.55;0.50;;;16.30;28.80;;;;;;5075775;28;20480;-74
2021/12/13 01:34:05;;;;;;;0.93;0.60;;;16.30;28.80;;;;;;5077390;28;20283;-74
2021/12/13 01:36:42;;;;;;;0.85;0.60;;;16.40;28.80;;;;;;5076922;28;20200;-74
2021/12/13 01:39:13;;;;;;;0.95;0.68;;;16.40;28.80;;;;;;5076507;28;20243;-76
2021/12/13 01:41:45;;;;;;;0.75;0.75;;;16.40;28.80;;;;;;5076740;28;20200;-77
2021/12/13 01:44:19;;;;;;;0.60;0.50;;;16.30;28.70;;;;;;5076744;28;20200;-75
2021/12/13 01:46:50;;;;;;;0.60;0.60;;;16.40;28.70;;;;;;5076789;28;20670;-74
2021/12/13 01:49:19;;;;;;;0.95;0.60;;;16.40;28.70;;;;;;5076705;28;20247;-74
2021/12/13 01:51:48;;;;;;;0.70;0.60;;;16.40;28.70;;;;;;5077097;28;20208;-74
2021/12/13 01:54:20;;;;;;;1.17;0.52;;;16.30;28.60;;;;;;5075975;28;20246;-74
2021/12/13 01:56:56;;;;;;;0.50;0.50;;;16.30;28.60;;;;;;5076204;28;20200;-74
2021/12/13 01:59:44;;;;;;;0.95;0.60;;;16.30;28.60;;;;;;5076370;28;20208;-74
2021/12/13 02:02:17;;;;;;;0.75;0.50;;;16.30;28.50;;;;;;5063790;28;20209;-74
2021/12/13 02:04:56;;;;;;;0.63;0.47;;;16.40;28.70;;;;;;5076023;28;20204;-75
2021/12/13 02:07:26;;;;;;;0.60;0.52;;;16.40;28.60;;;;;;5075816;28;20509;-75
2021/12/13 02:09:53;;;;;;;0.60;0.60;;;16.30;28.50;;;;;;5075248;28;20204;-75
2021/12/13 02:12:21;;;;;;;1.60;0.60;;;16.30;28.60;;;;;;5076392;28;20650;-75
2021/12/13 02:16:55;;;;;;;0.50;0.45;;;16.40;28.60;;;;;;5076522;28;20220;-75
2021/12/13 02:17:38;;;;;;;0.57;0.50;;;16.30;28.50;;;;;;5077187;28;20222;-75
2021/12/13 02:20:12;;;;;;;0.82;0.60;;;16.30;28.40;;;;;;5077145;28;20207;-75
2021/12/13 02:22:42;;;;;;;0.75;0.40;;;16.30;28.30;;;;;;5076984;28;20204;-74
2021/12/13 02:25:19;;;;;;;0.50;0.47;;;16.30;28.30;;;;;;5077526;28;20494;-75
2021/12/13 02:27:50;;;;;;;1.20;0.40;;;16.30;28.30;;;;;;5077231;28;20222;-75
2021/12/13 02:30:24;;;;;;;0.50;0.50;;;16.30;28.30;;;;;;5077054;28;20594;-75
2021/12/13 02:32:51;;;;;;;0.77;0.43;;;16.30;28.30;;;;;;5077323;28;20218;-74
2021/12/13 02:35:20;;;;;;;0.82;0.40;;;16.30;28.30;;;;;;5077359;28;20251;-75
2021/12/13 02:37:49;;;;;;;0.68;0.45;;;16.30;28.30;;;;;;5077465;28;20231;-75
2021/12/13 02:40:19;;;;;;;0.70;0.43;;;16.30;28.40;;;;;;5077220;28;20204;-75
2021/12/13 02:42:49;;;;;;;0.55;0.40;;;16.30;28.30;;;;;;5077961;28;20607;-75
2021/12/13 02:45:23;;;;;;;0.50;0.40;;;16.30;28.40;;;;;;5081349;28;20200;-75
2021/12/13 02:47:57;;;;;;;0.73;0.40;;;16.30;28.40;;;;;;5081087;28;20270;-75
2021/12/13 02:50:35;;;;;;;0.95;0.50;;;16.30;28.40;;;;;;5081005;28;20215;-75
2021/12/13 02:53:06;;;;;;;0.70;0.50;;;16.30;28.40;;;;;;5080981;28;20219;-75
2021/12/13 02:55:34;;;;;;;0.43;0.40;;;16.30;28.40;;;;;;5080651;28;20235;-75
2021/12/13 02:58:05;;;;;;;0.40;0.40;;;16.30;28.40;;;;;;5080183;28;20196;-75
2021/12/13 03:00:38;;;;;;;0.30;0.30;;;16.40;28.50;;;;;;5080582;28;20215;-74
2021/12/13 03:03:11;;;;;;;0.40;0.38;;;16.40;28.50;;;;;;5080012;28;20223;-75
2021/12/13 03:05:43;;;;;;;0.60;0.40;;;16.40;28.40;;;;;;5080442;28;20572;-75
2021/12/13 03:08:15;;;;;;;0.47;0.45;;;16.40;28.40;;;;;;5080537;28;20204;-75
2021/12/13 03:10:48;;;;;;;0.40;0.40;;;16.40;28.40;;;;;;5080239;28;20204;-74
2021/12/13 03:13:16;;;;;;;0.63;0.50;;;16.40;28.40;;;;;;5080422;28;20216;-74
2021/12/13 03:15:48;;;;;;;0.50;0.30;;;16.40;28.40;;;;;;5080522;28;20243;-75
2021/12/13 03:18:20;;;;;;;0.30;0.28;;;16.50;28.40;;;;;;5080798;28;20204;-75
2021/12/13 03:21:08;;;;;;;0.40;0.40;;;16.50;28.40;;;;;;5080523;28;20204;-75
2021/12/13 03:23:52;;;;;;;0.50;0.40;;;16.50;28.30;;;;;;5080533;28;20204;-75
2021/12/13 03:26:44;;;;;;;0.45;0.40;;;16.50;28.30;;;;;;5080309;28;20196;-76
2021/12/13 03:29:18;;;;;;;0.50;0.30;;;16.50;28.30;;;;;;5080635;28;20475;-75
2021/12/13 03:31:49;;;;;;;0.30;0.30;;;16.50;28.20;;;;;;5080225;28;20251;-74
2021/12/13 03:34:22;;;;;;;0.40;0.30;;;16.50;28.10;;;;;;5080384;28;20204;-74
2021/12/13 03:36:56;;;;;;;0.40;0.30;;;16.50;28.20;;;;;;5080018;28;20211;-74
2021/12/13 03:39:28;;;;;;;0.32;0.32;;;16.50;28.10;;;;;;5079452;28;20211;-75
2021/12/13 03:41:58;;;;;;;0.40;0.30;;;16.50;28.10;;;;;;5079951;28;20215;-74
2021/12/13 03:44:29;;;;;;;0.60;0.30;;;16.50;28.10;;;;;;5080073;28;20204;-74
2021/12/13 03:47:03;;;;;;;0.40;0.35;;;16.50;28.00;;;;;;5079819;28;20204;-74
2021/12/13 03:49:31;;;;;;;0.70;0.35;;;16.50;28.00;;;;;;5080237;28;20226;-76
2021/12/13 03:51:59;;;;;;;0.30;0.30;;;16.50;28.00;;;;;;5080265;28;20460;-76
2021/12/13 03:54:31;;;;;;;0.40;0.40;;;16.50;28.00;;;;;;5078702;28;20262;-76
2021/12/13 03:56:59;;;;;;;0.55;0.32;;;16.50;28.00;;;;;;5079870;28;20283;-76
2021/12/13 03:59:29;;;;;;;0.50;0.40;;;16.50;28.00;;;;;;5079662;28;20204;-76
2021/12/13 04:01:59;;;;;;;0.35;0.35;;;16.50;27.90;;;;;;5079628;28;20204;-76
2021/12/13 04:04:31;;;;;;;0.45;0.38;;;16.50;27.80;;;;;;5079659;28;20212;-76
2021/12/13 04:07:01;;;;;;;0.68;0.30;;;16.40;27.80;;;;;;5079322;28;20215;-76
2021/12/13 04:09:31;;;;;;;0.40;0.40;;;16.40;27.80;;;;;;5079071;28;20204;-76
2021/12/13 04:12:01;;;;;;;0.30;0.30;;;16.40;27.80;;;;;;5078842;28;20247;-76
2021/12/13 04:14:34;;;;;;;0.40;0.40;;;16.40;27.80;;;;;;5079076;28;20215;-76
2021/12/13 04:17:20;;;;;;;0.60;0.30;;;16.40;27.70;;;;;;5079258;28;20200;-76
2021/12/13 04:19:53;;;;;;;0.30;0.30;;;16.40;27.80;;;;;;5078703;28;20210;-76
2021/12/13 04:22:24;;;;;;;0.35;0.28;;;16.40;27.70;;;;;;5058898;28;20522;-76
2021/12/13 04:24:55;;;;;;;0.40;0.32;;;16.40;27.70;;;;;;5059194;28;20227;-76
2021/12/13 04:27:26;;;;;;;0.50;0.30;;;16.40;27.60;;;;;;5058700;28;20507;-77
2021/12/13 04:29:56;;;;;;;0.40;0.40;;;16.40;27.60;;;;;;5058816;28;20533;-76
2021/12/13 04:32:27;;;;;;;0.30;0.30;;;16.40;27.70;;;;;;5058706;28;20589;-76
2021/12/13 04:34:57;;;;;;;0.30;0.30;;;16.40;27.70;;;;;;5058228;28;20212;-76
2021/12/13 04:37:27;;;;;;;0.30;0.30;;;16.40;27.70;;;;;;5058412;28;20244;-76
2021/12/13 04:39:59;;;;;;;0.30;0.30;;;16.30;27.70;;;;;;5058189;28;20606;-76
2021/12/13 04:42:29;;;;;;;0.20;0.20;;;16.40;27.70;;;;;;5058657;28;20205;-76
2021/12/13 04:45:01;;;;;;;0.30;0.30;;;16.30;27.60;;;;;;5058423;28;20209;-76
2021/12/13 04:47:33;;;;;;;0.30;0.30;;;16.30;27.50;;;;;;5061831;28;20201;-76
2021/12/13 04:50:13;;;;;;;0.28;0.28;;;16.30;27.50;;;;;;5077892;28;20219;-76
2021/12/13 04:52:41;;;;;;;0.32;0.32;;;16.30;27.50;;;;;;5078152;28;20200;-76
2021/12/13 04:55:13;;;;;;;0.40;0.40;;;16.30;27.50;;;;;;5078291;28;20220;-76
2021/12/13 04:57:41;;;;;;;0.40;0.30;;;16.30;27.50;;;;;;5078289;28;20205;-76
2021/12/13 05:00:17;;;;;;;0.30;0.30;;;16.30;27.50;;;;;;5077692;28;20204;-76
2021/12/13 05:02:46;;;;;;;0.30;0.30;;;16.20;27.40;;;;;;5077592;28;20204;-76
2021/12/13 05:05:15;;;;;;;0.73;0.40;;;16.20;27.50;;;;;;5076853;28;20215;-76
2021/12/13 05:07:45;;;;;;;0.35;0.32;;;16.20;27.40;;;;;;5077589;28;20205;-76
2021/12/13 05:10:15;;;;;;;0.30;0.30;;;16.20;27.50;;;;;;5077876;28;20204;-76
2021/12/13 05:12:58;;;;;;;0.20;0.20;;;16.20;27.60;;;;;;5077244;28;20627;-76
2021/12/13 05:15:27;;;;;;;0.38;0.38;;;16.20;27.40;;;;;;5076552;28;20236;-76
2021/12/13 05:17:55;;;;;;;0.30;0.28;;;16.20;27.40;;;;;;5077435;28;20205;-76
2021/12/13 05:20:25;;;;;;;0.60;0.50;;;16.20;27.30;;;;;;5077485;28;20204;-76
2021/12/13 05:22:55;;;;;;;0.40;0.38;;;16.10;27.40;;;;;;5077707;28;20204;-76
2021/12/13 05:25:30;;;;;;;1.00;0.38;;;16.10;27.40;;;;;;5077325;28;20726;-76
2021/12/13 05:28:04;;;;;;;0.30;0.30;;;16.10;27.50;;;;;;5077486;28;20203;-76
2021/12/13 05:30:36;;;;;;;0.35;0.32;;;16.10;27.40;;;;;;5077238;28;20203;-76
2021/12/13 05:33:07;;;;;;;1.65;0.25;;;16.00;27.30;;;;;;5077490;28;20210;-76
2021/12/13 05:35:40;;;;;;;0.30;0.30;;;16.00;27.40;;;;;;5077438;28;20235;-76
2021/12/13 05:38:10;;;;;;;0.30;0.30;;;16.00;27.40;;;;;;5077052;28;20212;-76
2021/12/13 05:40:43;;;;;;;0.52;0.40;;;16.00;27.30;;;;;;5076733;28;20560;-76
2021/12/13 05:43:19;;;;;;;0.30;0.28;;;16.00;27.40;;;;;;5075559;28;20287;-76
2021/12/13 05:45:50;;;;;;;0.70;0.20;;;16.00;27.30;;;;;;5076253;28;20200;-76
2021/12/13 05:48:20;;;;;;;0.50;0.35;;;16.00;27.40;;;;;;5076644;28;20204;-76
2021/12/13 05:50:51;;;;;;;0.57;0.32;;;16.00;27.40;;;;;;5076716;28;20208;-76
2021/12/13 05:53:26;;;;;;;0.30;0.22;;;16.00;27.40;;;;;;5075559;28;20200;-76
2021/12/13 05:56:00;;;;;;;0.35;0.32;;;16.00;27.40;;;;;;5075237;28;20230;-76
2021/12/13 05:58:48;;;;;;;0.47;0.30;;;15.90;27.30;;;;;;5075843;28;20204;-76
2021/12/13 06:01:19;;;;;;;0.75;0.30;;;15.90;27.40;;;;;;5070637;28;20215;-76
2021/12/13 06:03:54;;;;;;;0.30;0.30;;;15.90;27.40;;;;;;5075483;28;20200;-76
2021/12/13 06:06:26;;;;;;;0.35;0.35;;;15.90;27.40;;;;;;5075312;28;20633;-76
2021/12/13 06:08:57;;;;;;;0.80;0.32;;;15.90;27.40;;;;;;5075431;28;20204;-76
2021/12/13 06:11:32;;;;;;;0.30;0.30;;;15.80;27.30;;;;;;5074514;28;20642;-75
2021/12/13 06:14:15;;;;;;;0.30;0.20;;;15.80;27.30;;;;;;5075742;28;20253;-76
2021/12/13 06:17:03;;;;;;;1.23;0.40;;;15.80;27.30;;;;;;5075956;28;20223;-76
2021/12/13 06:19:33;;;;;;;0.40;0.30;;;15.80;27.20;;;;;;5080827;28;20736;-76
2021/12/13 06:22:06;;;;;;;0.70;0.40;;;15.80;27.30;;;;;;5081841;28;20215;-76
2021/12/13 06:24:36;;;;;;;0.63;0.32;;;15.80;27.40;;;;;;5081865;28;20220;-76
2021/12/13 06:27:17;;;;;;;0.60;0.40;;;15.80;27.40;;;;;;5082095;28;20200;-76
2021/12/13 06:30:08;;;;;;;0.47;0.40;;;15.80;27.40;;;;;;5082157;28;20200;-76
2021/12/13 06:32:42;;;;;;;0.52;0.40;;;15.80;27.40;;;;;;5081427;28;20203;-76
2021/12/13 06:35:44;;;;;;;0.30;0.30;;;15.80;27.40;;;;;;5080969;28;20525;-76
2021/12/13 06:38:27;;;;;;;0.63;0.43;;;15.70;27.40;;;;;;5077645;28;20200;-76
2021/12/13 06:40:56;;;;;;;0.40;0.40;;;15.70;27.40;;;;;;5081847;28;20204;-77
2021/12/13 06:43:31;;;;;;;0.40;0.40;;;15.70;27.40;;;;;;5081104;28;20204;-76
2021/12/13 06:46:00;;;;;;;0.50;0.40;;;15.70;27.40;;;;;;5081479;28;20199;-76
2021/12/13 06:48:37;;;;;;;0.35;0.35;;;15.70;27.40;;;;;;5081656;28;20208;-76
2021/12/13 06:51:05;;;;;;;0.40;0.40;;;15.70;27.40;;;;;;5082037;28;20211;-76
2021/12/13 06:53:33;;;;;;;0.30;0.30;;;15.70;27.50;;;;;;5081908;28;20208;-76
2021/12/13 06:56:20;;;;;;;0.32;0.32;;;15.70;27.50;;;;;;5081002;28;20224;-76
2021/12/13 06:58:52;;;;;;;1.10;0.55;;;15.70;27.50;;;;;;5080980;28;20226;-76
2021/12/13 07:01:20;;;;;;;0.50;0.40;;;15.60;27.50;;;;;;5081402;28;20204;-76
2021/12/13 07:03:55;;;;;;;0.43;0.40;;;15.60;27.50;;;;;;5081549;28;20215;-76
2021/12/13 07:06:23;;;;;;;0.40;0.30;;;15.60;27.50;;;;;;5061244;28;20200;-76
2021/12/13 07:09:08;;;;;;;0.40;0.40;;;15.60;27.50;;;;;;5061632;28;20454;-76
2021/12/13 07:11:46;;;;;;;0.38;0.35;;;15.60;27.50;;;;;;5061413;28;20232;-76
2021/12/13 07:14:17;;;;;;;0.50;0.50;;;15.60;27.60;;;;;;5061849;28;20207;-76
2021/12/13 07:16:50;;;;;;;1.05;0.40;;;15.60;27.60;;;;;;5061368;28;20229;-76
2021/12/13 07:19:20;;;;;;;0.40;0.40;;;15.60;27.60;;;;;;5061524;28;20201;-76
2021/12/13 07:21:56;;;;;;;0.63;0.63;;;15.60;27.60;;;;;;5061684;28;20295;-76
2021/12/13 07:24:34;;;;;;;0.50;0.50;;;15.50;27.50;;;;;;5061485;28;20212;-76
2021/12/13 07:27:05;;;;;;;0.40;0.40;;;15.60;27.60;;;;;;5061497;28;20201;-76
2021/12/13 07:29:40;;;;;;;0.60;0.40;;;15.50;27.50;;;;;;5058556;28;20213;-76
2021/12/13 07:32:12;;;;;;;0.50;0.40;;;15.50;27.50;;;;;;5064012;28;20195;-76
2021/12/13 07:35:05;;;;;;;0.40;0.40;;;15.50;27.50;;;;;;5077893;28;20192;-76
2021/12/13 07:37:39;;;;;;;0.65;0.50;;;15.50;27.60;;;;;;5077629;28;20224;-76
2021/12/13 07:40:26;;;;;;;0.40;0.40;;;15.50;27.60;;;;;;5078101;28;20211;-76
2021/12/13 07:43:02;;;;;;;0.60;0.60;;;15.50;27.60;;;;;;5078351;28;20200;-76
2021/12/13 07:45:34;;;;;;;0.60;0.60;;;15.50;27.50;;;;;;5078333;28;20203;-76
2021/12/13 07:48:07;;;;;;;0.52;0.40;;;15.50;27.60;;;;;;5077636;28;20208;-76
2021/12/13 07:50:34;;;;;;;0.50;0.47;;;15.50;27.60;;;;;;5077909;28;20204;-76
2021/12/13 07:53:05;;;;;;;0.47;0.47;;;15.40;27.50;;;;;;5078468;28;20204;-76
2021/12/13 07:55:32;;;;;;;1.63;0.55;;;15.40;27.60;;;;;;5077950;28;20216;-76
2021/12/13 07:58:05;;;;;;;1.08;0.75;;;15.40;27.60;;;;;;5077823;28;20259;-76
2021/12/13 08:00:38;;;;;;;3.00;0.80;;;15.40;27.50;;;;;;5077259;28;20815;-76
2021/12/13 08:03:08;;;;;;;0.98;0.60;;;15.40;27.50;;;;;;5077477;28;20201;-76
2021/12/13 08:05:40;;;;;;;1.50;1.40;;;15.40;27.60;;;;;;5077716;28;20204;-76
2021/12/13 08:08:15;;;;;;;1.60;1.50;;;15.40;27.70;;;;;;5076121;28;20220;-76
2021/12/13 08:10:44;;;;;;;1.75;1.20;;;15.40;27.70;;;;;;5075243;28;20285;-76
2021/12/13 08:13:15;;;;;;;1.65;1.27;;;15.40;27.80;;;;;;5076895;28;20204;-76
2021/12/13 08:15:48;;;;;;;1.58;1.20;;;15.40;27.80;;;;;;5077768;28;20203;-76
2021/12/13 08:18:26;;;;;;;2.05;1.30;;;15.40;27.90;;;;;;5077004;28;20231;-76
2021/12/13 08:20:58;;;;;;;2.28;1.00;;;15.40;27.90;;;;;;5077454;28;20204;-76
2021/12/13 08:23:30;;;;;;;1.10;1.00;;;15.40;27.90;;;;;;5077032;28;20204;-76
2021/12/13 08:26:01;;;;;;;2.97;1.50;;;15.50;28.10;;;;;;5077376;28;20212;-76
2021/12/13 08:28:37;;;;;;;2.17;1.20;;;15.50;28.10;;;;;;5076042;28;20212;-76
2021/12/13 08:31:08;;;;;;;1.92;1.20;;;15.50;28.10;;;;;;5076946;28;20617;-76
2021/12/13 08:33:39;;;;;;;1.17;1.08;;;15.40;28.00;;;;;;5077290;28;20231;-76
2021/12/13 08:36:09;;;;;;;1.13;1.00;;;15.40;28.10;;;;;;5077310;28;20204;-76
2021/12/13 08:38:41;;;;;;;2.10;1.08;;;15.50;28.10;;;;;;5075198;28;20415;-76
2021/12/13 08:41:24;;;;;;;1.23;1.13;;;15.40;28.00;;;;;;5074803;28;20212;-76
2021/12/13 08:43:55;;;;;;;2.78;1.30;;;15.50;28.10;;;;;;5075807;28;20212;-76
2021/12/13 08:46:37;;;;;;;2.25;1.20;;;15.40;28.00;;;;;;5075158;28;20257;-75
2021/12/13 08:49:16;;;;;;;2.65;0.90;;;15.50;28.10;;;;;;5076462;28;20223;-76
2021/12/13 08:51:55;;;;;;;1.67;1.10;;;15.50;28.10;;;;;;5076821;28;20203;-76
2021/12/13 08:54:33;;;;;;;3.33;1.20;;;15.40;28.00;;;;;;5074264;28;20198;-76
2021/12/13 08:57:02;;;;;;;2.70;1.08;;;15.40;28.00;;;;;;5075750;28;20685;-76
2021/12/13 08:59:30;;;;;;;1.83;1.10;;;15.40;28.10;;;;;;5076258;28;20208;-76
2021/12/13 09:02:03;;;;;;;3.72;1.23;;;15.40;28.00;;;;;;5076285;28;20204;-76
2021/12/13 09:04:33;;;;;;;1.92;1.20;;;15.40;28.10;;;;;;5076963;28;20303;-76
2021/12/13 09:07:03;;;;;;;2.15;0.95;;;15.40;28.10;;;;;;5076572;28;20200;-76
2021/12/13 09:09:30;;;;;;;1.48;1.08;;;15.40;28.10;;;;;;5075974;28;20227;-76
2021/12/13 09:12:01;;;;;;;1.40;1.00;;;15.40;28.10;;;;;;5075307;28;20243;-76
2021/12/13 09:14:31;;;;;;;1.75;1.05;;;15.50;28.20;;;;;;5076295;28;20236;-76
2021/12/13 09:17:11;;;;;;;2.10;1.10;;;15.40;28.20;;;;;;5076374;28;20278;-76
2021/12/13 09:19:54;;;;;;;2.88;1.17;;;15.50;28.30;;;;;;5076040;28;20266;-75
2021/12/13 09:22:25;;;;;;;1.98;1.08;;;15.50;28.30;;;;;;5075681;28;20196;-76
2021/12/13 09:24:55;;;;;;;1.95;0.95;;;15.50;28.30;;;;;;5075887;28;20201;-75
2021/12/13 09:27:36;;;;;;;2.38;1.00;;;15.50;28.30;;;;;;5075700;28;20193;-76
2021/12/13 09:30:24;;;;;;;1.88;1.00;;;15.50;28.30;;;;;;5075230;28;20492;-76
2021/12/13 09:32:58;;;;;;;2.63;0.90;;;15.50;28.30;;;;;;5076008;28;20219;-76
2021/12/13 09:35:37;;;;;;;0.82;0.82;;;15.50;28.30;;;;;;5075628;28;20203;-76
2021/12/13 09:38:25;;;;;;;0.93;0.77;;;15.50;28.30;;;;;;5075586;28;20620;-76
2021/12/13 09:40:59;;;;;;;1.25;0.95;;;15.50;28.40;;;;;;5076154;28;20208;-76
2021/12/13 09:43:42;;;;;;;1.27;1.00;;;15.50;28.40;;;;;;5075966;28;20506;-76
2021/12/13 09:46:10;;;;;;;2.30;0.90;;;15.50;28.40;;;;;;5075492;28;20480;-76
2021/12/13 09:48:42;;;;;;;1.15;0.98;;;15.50;28.40;;;;;;5075156;28;20197;-76
2021/12/13 09:51:17;;;;;;;1.20;1.10;;;15.50;28.40;;;;;;5074607;28;20611;-76
2021/12/13 09:53:50;;;;;;;1.05;0.95;;;15.50;28.40;;;;;;5075629;28;20466;-76
2021/12/13 09:56:19;;;;;;;1.08;1.00;;;15.50;28.40;;;;;;5075257;28;20211;-76
2021/12/13 09:58:50;;;;;;;1.02;0.95;;;15.50;28.40;;;;;;5073674;28;20207;-75
2021/12/13 10:01:21;;;;;;;1.00;0.90;;;15.50;28.40;;;;;;5075066;28;20215;-73
2021/12/13 10:03:55;;;;;;;1.10;1.00;;;15.50;28.50;;;;;;5074380;28;20219;-73
2021/12/13 10:06:25;;;;;;;1.58;1.10;;;15.50;28.40;;;;;;5074347;28;20212;-73
2021/12/13 10:08:57;;;;;;;1.75;1.00;;;15.40;28.40;;;;;;5074624;28;20204;-74
2021/12/13 10:11:29;;;;;;;1.73;0.90;;;15.40;28.40;;;;;;5073651;28;20232;-73
2021/12/13 10:13:57;;;;;;;2.55;1.20;;;15.50;28.40;;;;;;5074253;28;20204;-73
2021/12/13 10:16:31;;;;;;;3.70;1.10;;;15.50;28.40;;;;;;5073271;28;20231;-74
2021/12/13 10:19:01;;;;;;;4.85;1.33;;;15.50;28.80;;;;;;5073128;28;20188;-72
2021/12/13 10:21:31;;;;;;;3.85;1.23;;;15.40;28.80;;;;;;5072930;28;20215;-72
2021/12/13 10:24:01;;;;;;;3.78;1.00;;;15.50;28.90;;;;;;5072370;28;20226;-73
2021/12/13 10:26:33;;;;;;;4.03;1.35;;;15.40;28.90;;;;;;5071626;28;20197;-72
2021/12/13 10:29:03;;;;;;;3.25;1.20;;;15.40;28.90;;;;;;5072409;28;20208;-75
2021/12/13 10:31:36;;;;;;;4.47;1.30;;;15.40;28.80;;;;;;5072396;28;20192;-75
2021/12/13 10:34:07;;;;;;;5.70;1.55;;;15.40;28.80;;;;;;5072131;28;20585;-75
2021/12/13 10:36:39;;;;;;;2.42;1.00;;;15.40;28.90;;;;;;5072845;28;20200;-73
2021/12/13 10:39:10;;;;;;;3.00;1.33;;;15.50;28.90;;;;;;5070859;28;20219;-73
2021/12/13 10:41:41;;;;;;;1.92;1.33;;;15.50;28.90;;;;;;5074580;28;20200;-73
2021/12/13 10:44:13;;;;;;;2.03;1.10;;;15.50;29.00;;;;;;5072239;28;20202;-75
2021/12/13 10:46:44;;;;;;;1.38;1.20;;;15.50;29.20;;;;;;5072799;28;20193;-73
2021/12/13 10:49:17;;;;;;;1.10;1.00;;;15.50;29.30;;;;;;5073376;28;20204;-73
2021/12/13 10:51:51;;;;;;;1.52;1.20;;;15.50;29.40;;;;;;5073331;28;20208;-74
2021/12/13 10:54:20;;;;;;;2.55;1.50;;;15.50;29.50;;;;;;5073692;28;20269;-74
2021/12/13 10:56:51;;;;;;;2.30;1.17;;;15.60;29.70;;;;;;5072588;28;20212;-76
2021/12/13 10:59:20;;;;;;;1.20;1.10;;;15.60;29.70;;;;;;5072011;28;20200;-74
2021/12/13 11:01:50;;;;;;;1.25;1.13;;;15.60;29.70;;;;;;5072832;28;20212;-75
2021/12/13 11:04:29;;;;;;;3.40;1.35;;;15.60;29.80;;;;;;5073958;28;20196;-73
2021/12/13 11:06:57;;;;;;;1.55;1.25;;;15.60;29.80;;;;;;5077088;28;20238;-74
2021/12/13 11:09:26;;;;;;;1.70;1.23;;;15.70;29.90;;;;;;5077433;28;20286;-72
2021/12/13 11:11:56;;;;;;;2.03;1.20;;;15.70;29.90;;;;;;5077423;28;20228;-73
2021/12/13 11:14:25;;;;;;;1.50;1.40;;;15.70;30.00;;;;;;5076509;28;20201;-74
2021/12/13 11:16:57;;;;;;;1.83;1.23;;;15.70;30.00;;;;;;5076295;28;20215;-73
2021/12/13 11:19:29;;;;;;;3.00;1.20;;;15.70;30.00;;;;;;5076810;28;20211;-73
2021/12/13 11:22:01;;;;;;;1.70;1.10;;;15.80;30.10;;;;;;5078220;28;20208;-73
2021/12/13 11:24:33;;;;;;;2.55;1.20;;;15.70;30.00;;;;;;5076910;28;20196;-75
2021/12/13 11:27:10;;;;;;;2.13;1.20;;;15.80;30.00;;;;;;5075983;28;20220;-75
2021/12/13 11:29:38;;;;;;;1.40;1.20;;;15.80;30.00;;;;;;5076845;28;20208;-75
2021/12/13 11:32:44;;;;;;;1.50;1.30;;;15.80;30.00;;;;;;5077050;28;20210;-75
2021/12/13 11:35:53;;;;;;;1.58;1.00;;;15.80;29.80;;;;;;5077092;28;20603;-75
2021/12/13 11:38:48;;;;;;;2.85;1.35;;;15.80;29.70;;;;;;5054697;28;20235;-75
2021/12/13 11:41:38;;;;;;;2.60;1.30;;;15.80;29.70;;;;;;5076408;28;20211;-75
2021/12/13 11:44:43;;;;;;;1.65;1.00;;;15.90;29.60;;;;;;5077063;28;20216;-75
2021/12/13 11:47:43;;;;;;;2.83;1.20;;;15.90;29.50;;;;;;5076251;28;20200;-75
2021/12/13 11:51:03;;;;;;;1.95;1.25;;;15.90;29.50;;;;;;5077674;28;20208;-75
2021/12/13 11:54:04;;;;;;;3.47;1.33;;;15.90;29.40;;;;;;4995020;28;20634;-75
2021/12/13 11:57:01;;;;;;;1.88;1.00;;;15.90;29.40;;;;;;5077469;28;20203;-75
2021/12/13 11:59:57;;;;;;;2.15;1.30;;;15.90;29.30;;;;;;5017296;28;20226;-75
2021/12/13 12:02:35;;;;;;;2.83;1.30;;;15.80;29.20;;;;;;5074651;28;20205;-75
2021/12/13 12:05:45;;;;;;;1.38;1.27;;;15.80;29.20;;;;;;5074997;28;20208;-76
2021/12/13 12:08:44;;;;;;;2.03;1.17;;;15.90;29.20;;;;;;5057490;28;20192;-75
2021/12/13 12:11:52;;;;;;;3.00;1.10;;;15.80;29.10;;;;;;5058073;28;20492;-75
2021/12/13 12:14:24;;;;;;;2.00;1.20;;;15.80;29.10;;;;;;5073578;28;20289;-75
2021/12/13 12:16:53;;;;;;;4.00;1.15;;;15.80;29.10;;;;;;5074924;28;20208;-75
2021/12/13 12:19:23;;;;;;;1.60;1.05;;;15.80;29.10;;;;;;5074190;28;20475;-75
2021/12/13 12:21:57;;;;;;;1.60;1.30;;;15.80;29.00;;;;;;5073896;28;20622;-76
2021/12/13 12:24:27;;;;;;;1.80;1.10;;;15.80;29.00;;;;;;5074270;28;20204;-75
2021/12/13 12:26:58;;;;;;;1.63;1.17;;;15.80;29.00;;;;;;5073530;28;20231;-76
2021/12/13 12:29:29;;;;;;;1.30;0.90;;;15.80;29.00;;;;;;5075001;28;20269;-76
2021/12/13 12:32:04;;;;;;;1.33;0.95;;;15.80;28.90;;;;;;5076310;28;20204;-75
2021/12/13 12:34:33;;;;;;;2.20;1.20;;;15.80;28.90;;;;;;5072824;28;20227;-75
2021/12/13 12:37:46;;;;;;;1.50;0.93;;;15.80;28.90;;;;;;5074341;28;20322;-75
2021/12/13 12:40:26;;;;;;;1.30;1.00;;;15.80;28.90;;;;;;5054324;28;20209;-75
2021/12/13 12:42:59;;;;;;;1.15;1.00;;;15.80;28.90;;;;;;5054193;28;20201;-76
2021/12/13 12:45:32;;;;;;;1.83;0.93;;;15.80;28.90;;;;;;5052677;28;20410;-75
2021/12/13 12:48:13;;;;;;;1.55;1.20;;;15.80;28.90;;;;;;5054566;28;20255;-76
2021/12/13 12:50:46;;;;;;;1.23;1.13;;;15.80;28.90;;;;;;5069272;28;20513;-75
2021/12/13 12:53:16;;;;;;;1.55;1.10;;;15.80;28.90;;;;;;5075174;28;20227;-75
2021/12/13 12:55:46;;;;;;;1.30;1.08;;;15.70;28.80;;;;;;5074922;28;20200;-75
2021/12/13 12:58:20;;;;;;;1.83;0.90;;;15.70;28.80;;;;;;5075971;28;20228;-75
2021/12/13 13:00:49;;;;;;;2.00;1.05;;;15.70;28.80;;;;;;5075010;28;20607;-75
2021/12/13 13:03:23;;;;;;;1.63;1.10;;;15.70;28.90;;;;;;5074319;28;20575;-75
2021/12/13 13:05:51;;;;;;;1.20;1.10;;;15.70;28.90;;;;;;5074636;28;20315;-75
2021/12/13 13:08:28;;;;;;;24.85;13.25;;;15.70;28.90;;;;;;5073867;28;20200;-75
2021/12/13 13:11:20;;;;;;;34.10;18.40;;;15.70;28.90;;;;;;5074970;28;20489;-75
2021/12/13 13:13:49;;;;;;;29.48;15.15;;;15.70;28.90;;;;;;5074564;28;20761;-75
2021/12/13 13:16:18;;;;;;;24.13;13.82;;;15.70;28.90;;;;;;5074587;28;20211;-76
2021/12/13 13:18:46;;;;;;;22.25;12.57;;;15.70;28.90;;;;;;5074821;28;20492;-75
2021/12/13 13:21:14;;;;;;;22.38;12.90;;;15.60;28.90;;;;;;5074742;28;20204;-75
2021/12/13 13:23:44;;;;;;;19.48;11.77;;;15.60;28.90;;;;;;5074584;28;20602;-75